Time;durP1;ratioP1;P1;durP2;ratioP2;P2;SDS_P1;SDS_P2;PMS_P1;PMS_P2;Temp;Humidity;BMP_temperature;BMP_pressure;BME280_temperature;BME280_humidity;BME280_pressure;Samples;Min_cycle;Max_cycle;Signal;HPM_P1;HPM_P2
2022/09/19 00:01:38;;;;;;;13.80;2.63;;;11.10;99.90;;;;;;5050121;28;20609;-46
2022/09/19 00:04:10;;;;;;;15.55;2.55;;;11.00;99.90;;;;;;5057324;28;20074;-46
2022/09/19 00:06:38;;;;;;;13.82;2.42;;;11.10;99.90;;;;;;5053938;28;20103;-48
2022/09/19 00:09:06;;;;;;;17.15;2.28;;;11.00;99.90;;;;;;5046225;28;20602;-46
2022/09/19 00:11:33;;;;;;;12.05;2.42;;;11.00;99.90;;;;;;5054091;28;20098;-48
2022/09/19 00:14:00;;;;;;;14.13;2.22;;;11.00;99.90;;;;;;5057935;28;20044;-46
2022/09/19 00:16:35;;;;;;;19.80;2.58;;;11.00;99.90;;;;;;5057862;28;20048;-46
2022/09/19 00:19:05;;;;;;;12.77;2.47;;;11.00;99.90;;;;;;5054428;28;20407;-46
2022/09/19 00:21:39;;;;;;;17.13;4.07;;;10.90;99.90;;;;;;5059801;28;20048;-48
2022/09/19 00:26:55;;;;;;;11.00;1.83;;;10.80;99.90;;;;;;5058434;28;20062;-47
2022/09/19 00:29:22;;;;;;;15.43;2.20;;;10.80;99.90;;;;;;5054167;28;20048;-47
2022/09/19 00:31:48;;;;;;;13.50;2.25;;;10.80;99.90;;;;;;5041268;28;20084;-51
2022/09/19 00:34:18;;;;;;;15.10;2.60;;;10.80;99.90;;;;;;5053554;28;20157;-47
2022/09/19 00:36:44;;;;;;;12.00;2.35;;;10.80;99.90;;;;;;5052151;28;20139;-47
2022/09/19 00:39:14;;;;;;;13.50;2.20;;;10.80;99.90;;;;;;5053879;28;20044;-46
2022/09/19 00:41:40;;;;;;;18.73;3.15;;;10.70;99.90;;;;;;5057728;28;20157;-47
2022/09/19 00:44:26;;;;;;;16.45;3.85;;;10.80;99.90;;;;;;5054417;28;20773;-46
2022/09/19 00:46:56;;;;;;;15.32;2.70;;;10.90;99.90;;;;;;5059173;28;20053;-47
2022/09/19 00:49:24;;;;;;;16.75;3.38;;;10.90;99.90;;;;;;5059216;28;20057;-47
2022/09/19 00:51:56;;;;;;;14.95;2.92;;;11.00;99.90;;;;;;5053292;28;20049;-47
2022/09/19 00:54:34;;;;;;;14.00;2.35;;;11.00;99.90;;;;;;5053641;28;20053;-47
2022/09/19 00:57:03;;;;;;;13.32;2.40;;;11.10;99.90;;;;;;5054465;28;20041;-51
2022/09/19 00:59:33;;;;;;;11.40;2.15;;;11.10;99.90;;;;;;5059769;28;20083;-50
2022/09/19 01:02:04;;;;;;;15.93;2.80;;;11.10;99.90;;;;;;5054963;28;20049;-48
2022/09/19 01:04:35;;;;;;;18.77;3.90;;;11.00;99.90;;;;;;5052761;28;20051;-47
2022/09/19 01:07:35;;;;;;;17.23;2.97;;;11.10;99.90;;;;;;5047535;28;20578;-47
2022/09/19 01:10:21;;;;;;;13.02;2.63;;;11.10;99.90;;;;;;5051262;28;20048;-47
2022/09/19 01:13:00;;;;;;;15.93;2.53;;;10.90;99.90;;;;;;5052336;28;20172;-46
2022/09/19 01:15:54;;;;;;;23.58;3.22;;;10.90;99.90;;;;;;5062904;28;20052;-48
2022/09/19 01:18:28;;;;;;;17.25;3.20;;;10.90;99.90;;;;;;5051567;28;20048;-46
2022/09/19 01:24:17;;;;;;;13.40;2.63;;;10.80;99.90;;;;;;5056438;28;20128;-47
2022/09/19 01:27:05;;;;;;;22.60;2.90;;;10.80;99.90;;;;;;5057850;28;20398;-47
2022/09/19 01:29:55;;;;;;;16.38;2.75;;;10.80;99.90;;;;;;5053572;28;20080;-46
2022/09/19 01:32:31;;;;;;;18.00;3.28;;;10.80;99.90;;;;;;5054582;28;20059;-46
2022/09/19 01:35:02;;;;;;;21.15;4.05;;;10.80;99.90;;;;;;5056353;28;20521;-49
2022/09/19 01:37:53;;;;;;;18.27;2.92;;;10.90;99.90;;;;;;5062035;28;20055;-46
2022/09/19 01:40:21;;;;;;;18.35;3.22;;;10.90;99.90;;;;;;5058903;28;20040;-47
2022/09/19 01:42:55;;;;;;;17.95;3.38;;;10.80;99.90;;;;;;5058793;28;20351;-46
2022/09/19 01:45:33;;;;;;;18.40;2.70;;;10.80;99.90;;;;;;5062662;28;20150;-46
2022/09/19 01:48:20;;;;;;;18.73;3.42;;;10.70;99.90;;;;;;5063605;28;20049;-46
2022/09/19 01:51:05;;;;;;;16.40;2.75;;;10.80;99.90;;;;;;5064412;28;20044;-47
2022/09/19 01:53:59;;;;;;;24.42;3.28;;;10.70;99.90;;;;;;5061878;28;20605;-48
2022/09/19 01:56:37;;;;;;;20.10;3.85;;;10.70;99.90;;;;;;5064323;28;20048;-46
2022/09/19 01:59:22;;;;;;;17.17;3.42;;;10.70;99.90;;;;;;5064443;28;20461;-46
2022/09/19 02:02:17;;;;;;;20.10;2.70;;;10.70;99.90;;;;;;5064414;28;20044;-47
2022/09/19 02:05:13;;;;;;;16.30;3.63;;;10.70;99.90;;;;;;5056304;28;20197;-46
2022/09/19 02:07:43;;;;;;;16.58;2.72;;;10.70;99.90;;;;;;4981587;28;20058;-46
2022/09/19 02:10:21;;;;;;;15.50;2.92;;;10.70;99.90;;;;;;4987998;28;20089;-46
2022/09/19 02:12:52;;;;;;;14.18;2.53;;;10.70;99.90;;;;;;4985526;28;20058;-45
2022/09/19 02:15:22;;;;;;;15.43;3.03;;;10.70;99.90;;;;;;4983473;28;20142;-47
2022/09/19 02:17:55;;;;;;;18.00;2.38;;;10.60;99.90;;;;;;4990740;28;20465;-50
2022/09/19 02:20:33;;;;;;;19.48;2.70;;;10.50;99.90;;;;;;4989267;28;20101;-47
2022/09/19 02:23:23;;;;;;;12.45;2.90;;;10.50;99.90;;;;;;4988484;28;20053;-47
2022/09/19 02:25:52;;;;;;;17.42;2.75;;;10.50;99.90;;;;;;4979446;28;20086;-46
2022/09/19 02:28:25;;;;;;;18.08;3.58;;;10.50;99.90;;;;;;4970293;28;20603;-47
2022/09/19 02:30:51;;;;;;;20.13;2.88;;;10.50;99.90;;;;;;4984489;28;20054;-46
2022/09/19 02:33:17;;;;;;;20.83;2.20;;;10.60;99.90;;;;;;4971647;28;20485;-47
2022/09/19 02:35:46;;;;;;;20.08;3.20;;;10.60;99.90;;;;;;4983846;28;20108;-46
2022/09/19 02:38:36;;;;;;;16.25;2.72;;;10.60;99.90;;;;;;4983975;28;20483;-47
2022/09/19 02:41:21;;;;;;;11.95;2.40;;;10.60;99.90;;;;;;4974207;28;20366;-48
2022/09/19 02:44:18;;;;;;;14.32;2.13;;;10.50;99.90;;;;;;4994128;28;20059;-46
2022/09/19 02:47:11;;;;;;;18.25;3.30;;;10.60;99.90;;;;;;5057503;28;20053;-46
2022/09/19 02:49:46;;;;;;;8.57;2.08;;;10.60;99.90;;;;;;5062058;28;20515;-47
2022/09/19 02:52:17;;;;;;;16.58;2.70;;;10.50;99.90;;;;;;5052425;28;20053;-46
2022/09/19 02:54:48;;;;;;;19.95;3.30;;;10.40;99.90;;;;;;5050472;28;20053;-45
2022/09/19 02:57:17;;;;;;;16.23;2.47;;;10.40;99.90;;;;;;5054881;28;20155;-46
2022/09/19 02:59:49;;;;;;;18.52;3.15;;;10.30;99.90;;;;;;5061541;28;20044;-47
2022/09/19 03:02:29;;;;;;;14.82;2.70;;;10.30;99.90;;;;;;5050298;28;20402;-46
2022/09/19 03:05:01;;;;;;;13.80;2.58;;;10.30;99.90;;;;;;5054509;28;20048;-45
2022/09/19 03:07:32;;;;;;;13.30;2.38;;;10.30;99.90;;;;;;5061918;28;20070;-47
2022/09/19 03:10:12;;;;;;;10.32;2.47;;;10.30;99.90;;;;;;5061750;28;20044;-46
2022/09/19 03:12:52;;;;;;;15.25;2.65;;;10.30;99.90;;;;;;5062828;28;20061;-47
2022/09/19 03:15:30;;;;;;;14.07;2.17;;;10.30;99.90;;;;;;5063057;28;20047;-46
2022/09/19 03:18:00;;;;;;;16.13;2.63;;;10.30;99.90;;;;;;5062467;28;20054;-48
2022/09/19 03:20:26;;;;;;;15.38;3.35;;;10.40;99.90;;;;;;5062634;28;20048;-47
2022/09/19 03:22:53;;;;;;;12.32;2.47;;;10.40;99.90;;;;;;5057710;28;20070;-46
2022/09/19 03:25:19;;;;;;;19.95;2.70;;;10.40;99.90;;;;;;5053020;28;20423;-46
2022/09/19 03:27:45;;;;;;;15.93;2.63;;;10.50;99.90;;;;;;5063769;28;20045;-50
2022/09/19 03:30:13;;;;;;;16.15;3.50;;;10.50;99.90;;;;;;5052618;28;20055;-48
2022/09/19 03:32:41;;;;;;;16.88;2.83;;;10.50;99.90;;;;;;5052946;28;20098;-48
2022/09/19 03:35:08;;;;;;;17.38;2.63;;;10.50;99.90;;;;;;5057983;28;20086;-49
2022/09/19 03:37:34;;;;;;;14.57;2.33;;;10.60;99.90;;;;;;5058291;28;20087;-46
2022/09/19 03:40:01;;;;;;;17.83;2.60;;;10.60;99.90;;;;;;5054296;28;20052;-46
2022/09/19 03:42:28;;;;;;;14.15;2.50;;;10.60;99.90;;;;;;5059788;28;20148;-46
2022/09/19 03:44:54;;;;;;;10.32;2.08;;;10.60;99.90;;;;;;5061266;28;20495;-46
2022/09/19 03:47:25;;;;;;;7.15;1.85;;;10.60;99.90;;;;;;5048105;28;20044;-46
2022/09/19 03:49:50;;;;;;;14.57;2.55;;;10.60;99.90;;;;;;5055334;28;20060;-46
2022/09/19 03:52:17;;;;;;;12.85;2.30;;;10.50;99.90;;;;;;5048280;28;20247;-45
2022/09/19 03:54:44;;;;;;;9.00;2.10;;;10.50;99.90;;;;;;5055867;28;20617;-45
2022/09/19 03:57:11;;;;;;;11.50;2.20;;;10.40;99.90;;;;;;5054008;28;20136;-45
2022/09/19 03:59:39;;;;;;;12.25;2.22;;;10.40;99.90;;;;;;5051280;28;20060;-46
2022/09/19 04:02:06;;;;;;;12.43;2.28;;;10.30;99.90;;;;;;5030796;28;20053;-45
2022/09/19 04:04:32;;;;;;;9.80;1.80;;;10.30;99.90;;;;;;5056844;28;20499;-46
2022/09/19 04:06:58;;;;;;;10.75;2.50;;;10.30;99.90;;;;;;5055732;28;20102;-48
2022/09/19 04:09:25;;;;;;;14.35;2.17;;;10.30;99.90;;;;;;5060421;28;20633;-46
2022/09/19 04:11:52;;;;;;;16.10;3.17;;;10.40;99.90;;;;;;5051689;28;20458;-48
2022/09/19 04:14:18;;;;;;;12.73;2.22;;;10.50;99.90;;;;;;5053072;28;20326;-47
2022/09/19 04:16:44;;;;;;;9.38;1.88;;;10.60;99.90;;;;;;5061209;28;20554;-45
2022/09/19 04:19:12;;;;;;;8.82;1.80;;;10.80;99.90;;;;;;5050420;28;20041;-46
2022/09/19 04:21:41;;;;;;;15.52;1.50;;;11.00;99.90;;;;;;5055911;28;20052;-46
2022/09/19 04:24:12;;;;;;;9.23;2.03;;;11.10;99.90;;;;;;5050586;28;20045;-46
2022/09/19 04:26:39;;;;;;;15.10;2.13;;;11.20;99.90;;;;;;5054196;28;20087;-46
2022/09/19 04:29:06;;;;;;;14.57;2.60;;;11.20;99.90;;;;;;5050786;28;20083;-46
2022/09/19 04:31:39;;;;;;;13.93;1.92;;;11.20;99.90;;;;;;5051431;28;20123;-46
2022/09/19 04:34:18;;;;;;;15.75;2.15;;;11.20;99.90;;;;;;5055779;28;20094;-47
2022/09/19 04:36:44;;;;;;;12.35;2.08;;;11.10;99.90;;;;;;5052752;28;20049;-46
2022/09/19 04:39:10;;;;;;;15.25;3.03;;;11.10;99.90;;;;;;5056251;28;20051;-49
2022/09/19 04:41:37;;;;;;;12.60;1.95;;;11.00;99.90;;;;;;5051391;28;20146;-49
2022/09/19 04:44:06;;;;;;;12.98;1.90;;;11.10;99.90;;;;;;5059908;28;20491;-47
2022/09/19 04:46:32;;;;;;;9.38;2.80;;;10.90;99.90;;;;;;5064101;28;20424;-49
2022/09/19 04:49:00;;;;;;;16.83;2.63;;;10.90;99.90;;;;;;5060897;28;20055;-54
2022/09/19 04:51:31;;;;;;;12.48;2.17;;;10.80;99.90;;;;;;5054963;28;20147;-48
2022/09/19 04:53:57;;;;;;;15.95;2.55;;;10.80;99.90;;;;;;5047144;28;20065;-46
2022/09/19 04:56:23;;;;;;;11.38;2.15;;;10.70;99.90;;;;;;5054948;28;20049;-46
2022/09/19 04:58:48;;;;;;;16.20;2.30;;;10.60;99.90;;;;;;5054603;28;20092;-46
2022/09/19 05:01:14;;;;;;;13.27;2.10;;;10.60;99.90;;;;;;5055193;28;20049;-46
2022/09/19 05:03:43;;;;;;;9.65;2.00;;;10.60;99.90;;;;;;5059376;28;20048;-47
2022/09/19 05:06:11;;;;;;;11.00;2.22;;;10.60;99.90;;;;;;5058188;28;20468;-46
2022/09/19 05:08:37;;;;;;;8.60;2.13;;;10.60;99.90;;;;;;5059771;28;20542;-46
2022/09/19 05:11:06;;;;;;;13.52;2.90;;;10.60;99.90;;;;;;5057856;28;20048;-46
2022/09/19 05:13:34;;;;;;;10.05;2.17;;;10.70;99.90;;;;;;5052977;28;20134;-46
2022/09/19 05:16:01;;;;;;;15.18;2.42;;;10.70;99.90;;;;;;5056102;28;20052;-46
2022/09/19 05:18:28;;;;;;;6.88;1.95;;;10.60;99.90;;;;;;5056804;28;20049;-47
2022/09/19 05:20:55;;;;;;;10.10;1.70;;;10.60;99.90;;;;;;5052064;28;20056;-45
2022/09/19 05:23:25;;;;;;;13.50;2.60;;;10.60;99.90;;;;;;5055949;28;20045;-46
2022/09/19 05:25:53;;;;;;;12.57;2.08;;;10.50;99.90;;;;;;5051099;28;20094;-49
2022/09/19 05:28:21;;;;;;;9.65;1.90;;;10.50;99.90;;;;;;5054863;28;20143;-47
2022/09/19 05:30:50;;;;;;;15.02;2.47;;;10.50;99.90;;;;;;5055638;28;20057;-49
2022/09/19 05:33:21;;;;;;;15.88;2.83;;;10.40;99.90;;;;;;5051133;28;20071;-46
2022/09/19 05:35:47;;;;;;;13.95;2.30;;;10.40;99.90;;;;;;5058698;28;20451;-46
2022/09/19 05:38:13;;;;;;;13.23;1.90;;;10.40;99.90;;;;;;5056528;28;20052;-46
2022/09/19 05:40:38;;;;;;;12.23;2.28;;;10.50;99.90;;;;;;5055964;28;20495;-47
2022/09/19 05:43:04;;;;;;;8.95;2.10;;;10.50;99.90;;;;;;5060141;28;20059;-46
2022/09/19 05:45:31;;;;;;;10.68;1.85;;;10.50;99.90;;;;;;5055112;28;20056;-47
2022/09/19 05:48:06;;;;;;;14.60;2.38;;;10.50;99.90;;;;;;5059894;28;20067;-47
2022/09/19 05:50:34;;;;;;;13.85;2.25;;;10.50;99.90;;;;;;5055054;28;20059;-45
2022/09/19 05:55:45;;;;;;;16.52;2.28;;;10.60;99.90;;;;;;5048548;28;20122;-46
2022/09/19 05:58:13;;;;;;;10.68;2.10;;;10.70;99.90;;;;;;5054408;28;20085;-49
2022/09/19 06:00:39;;;;;;;7.90;1.85;;;10.90;99.90;;;;;;5053532;28;20098;-48
2022/09/19 06:03:07;;;;;;;9.98;1.85;;;11.20;99.90;;;;;;5055555;28;20511;-48
2022/09/19 06:05:41;;;;;;;14.40;3.13;;;11.30;99.90;;;;;;5063460;28;20124;-51
2022/09/19 06:08:07;;;;;;;11.65;2.20;;;11.50;99.90;;;;;;5060588;28;20056;-50
2022/09/19 06:10:39;;;;;;;7.45;1.65;;;11.90;99.90;;;;;;5055983;28;20841;-46
2022/09/19 06:13:06;;;;;;;9.75;2.38;;;12.40;99.90;;;;;;5056858;28;20514;-46
2022/09/19 06:15:35;;;;;;;7.53;1.60;;;12.30;99.90;;;;;;5059721;28;20045;-45
2022/09/19 06:18:01;;;;;;;6.40;1.83;;;12.20;99.90;;;;;;5062086;28;20059;-47
2022/09/19 06:20:27;;;;;;;13.85;2.00;;;12.00;99.90;;;;;;5051660;28;20048;-45
2022/09/19 06:22:57;;;;;;;12.93;2.65;;;11.80;99.90;;;;;;5062505;28;20051;-46
2022/09/19 06:25:25;;;;;;;9.80;1.70;;;11.70;99.90;;;;;;5059310;28;20048;-46
2022/09/19 06:27:59;;;;;;;9.75;1.70;;;12.30;99.90;;;;;;5057425;28;20402;-46
2022/09/19 06:30:26;;;;;;;13.27;2.58;;;13.60;99.90;;;;;;5060518;28;20076;-48
2022/09/19 06:32:52;;;;;;;9.27;2.05;;;14.70;99.90;;;;;;5048912;28;20048;-46
2022/09/19 06:35:22;;;;;;;11.90;2.33;;;15.90;99.90;;;;;;5062474;28;20405;-48
2022/09/19 06:37:48;;;;;;;8.75;2.03;;;16.70;99.90;;;;;;5062999;28;20512;-46
2022/09/19 06:40:18;;;;;;;12.07;2.28;;;17.40;99.90;;;;;;5053170;28;20057;-46
2022/09/19 06:42:44;;;;;;;7.63;2.67;;;17.90;99.90;;;;;;5052958;28;20048;-47
2022/09/19 06:45:10;;;;;;;9.63;1.92;;;17.90;99.90;;;;;;5053941;28;20143;-46
2022/09/19 06:47:37;;;;;;;11.23;2.15;;;17.40;99.90;;;;;;5056426;28;20624;-47
2022/09/19 06:50:04;;;;;;;15.48;4.43;;;16.60;99.90;;;;;;5058961;28;20052;-47
2022/09/19 06:52:30;;;;;;;7.70;1.75;;;16.20;99.90;;;;;;5051607;28;20660;-46
2022/09/19 06:54:58;;;;;;;11.10;2.97;;;16.10;99.90;;;;;;5041036;28;20051;-46
2022/09/19 06:57:24;;;;;;;14.32;2.28;;;16.10;99.90;;;;;;5034507;28;20575;-45
2022/09/19 06:59:50;;;;;;;15.57;2.72;;;15.90;99.90;;;;;;5037766;28;20076;-46
2022/09/19 07:02:16;;;;;;;8.88;2.63;;;15.70;99.90;;;;;;5038368;28;20132;-47
2022/09/19 07:04:42;;;;;;;12.77;2.35;;;15.60;99.90;;;;;;5039535;28;20041;-47
2022/09/19 07:07:07;;;;;;;9.38;2.35;;;15.70;99.90;;;;;;5035726;28;20479;-46
2022/09/19 07:09:33;;;;;;;10.68;2.40;;;15.90;99.90;;;;;;5039248;28;20495;-46
2022/09/19 07:12:01;;;;;;;10.40;2.15;;;16.10;99.90;;;;;;5034164;28;20297;-46
2022/09/19 07:14:26;;;;;;;11.10;1.92;;;16.30;99.90;;;;;;5039949;28;20419;-47
2022/09/19 07:16:52;;;;;;;10.98;2.70;;;16.50;99.90;;;;;;5038715;28;20041;-47
2022/09/19 07:19:18;;;;;;;13.15;2.20;;;16.60;99.90;;;;;;5041415;28;20076;-46
2022/09/19 07:21:44;;;;;;;7.63;2.20;;;16.80;99.90;;;;;;5036418;28;20041;-52
2022/09/19 07:24:12;;;;;;;10.18;1.92;;;16.90;99.90;;;;;;5041350;28;20048;-46
2022/09/19 07:26:38;;;;;;;7.85;2.10;;;17.00;99.90;;;;;;5021442;28;20092;-46
2022/09/19 07:29:04;;;;;;;9.15;2.25;;;17.10;99.90;;;;;;5016820;28;20067;-47
2022/09/19 07:31:30;;;;;;;8.48;2.58;;;17.20;99.90;;;;;;5014862;28;20445;-46
2022/09/19 07:33:56;;;;;;;10.88;2.17;;;17.30;99.90;;;;;;5036731;28;20459;-47
2022/09/19 07:36:22;;;;;;;8.40;1.88;;;17.30;99.90;;;;;;5039967;28;20051;-47
2022/09/19 07:38:50;;;;;;;10.55;2.22;;;17.40;99.90;;;;;;5032119;28;20056;-47
2022/09/19 07:41:17;;;;;;;33.03;7.32;;;17.40;99.90;;;;;;5035174;28;20052;-47
2022/09/19 07:43:49;;;;;;;9.57;1.75;;;17.40;99.90;;;;;;5032236;28;20052;-47
2022/09/19 07:46:15;;;;;;;11.20;2.17;;;17.40;99.90;;;;;;5040447;28;20404;-47
2022/09/19 07:48:47;;;;;;;15.05;2.42;;;17.50;99.90;;;;;;5041703;28;20511;-51
2022/09/19 07:51:13;;;;;;;11.23;1.97;;;17.50;99.90;;;;;;5042232;28;20056;-48
2022/09/19 07:53:39;;;;;;;11.30;2.35;;;17.40;99.90;;;;;;5048579;28;20732;-48
2022/09/19 07:56:05;;;;;;;7.18;2.10;;;17.40;99.90;;;;;;5055174;28;20483;-48
2022/09/19 07:58:31;;;;;;;6.55;2.20;;;17.40;99.90;;;;;;5053606;28;20161;-51
2022/09/19 08:01:01;;;;;;;14.55;2.30;;;17.40;99.90;;;;;;5055925;28;20589;-49
2022/09/19 08:03:27;;;;;;;9.70;2.15;;;17.40;99.90;;;;;;5059699;28;20440;-47
2022/09/19 08:05:52;;;;;;;11.65;3.05;;;17.60;99.90;;;;;;5054807;28;20045;-49
2022/09/19 08:08:21;;;;;;;13.05;2.55;;;17.60;99.90;;;;;;5044322;28;20044;-50
2022/09/19 08:10:47;;;;;;;11.23;2.03;;;17.60;99.90;;;;;;5046057;28;20479;-48
2022/09/19 08:13:14;;;;;;;11.57;2.25;;;17.60;99.90;;;;;;5053987;28;20044;-52
2022/09/19 08:15:43;;;;;;;16.65;3.67;;;17.70;99.90;;;;;;5057772;28;20124;-51
2022/09/19 08:18:16;;;;;;;13.15;2.20;;;17.70;99.90;;;;;;5061175;28;20053;-51
2022/09/19 08:20:42;;;;;;;;;;;17.90;99.90;;;;;;5062206;28;20052;-50
2022/09/19 08:23:10;;;;;;;8.10;1.80;;;17.90;99.90;;;;;;5059322;28;19936;-51
2022/09/19 08:25:39;;;;;;;11.77;2.20;;;18.00;99.90;;;;;;5060802;28;20080;-52
2022/09/19 08:28:05;;;;;;;8.07;2.30;;;17.80;99.90;;;;;;5062945;28;20299;-49
2022/09/19 08:30:35;;;;;;;11.45;2.42;;;17.70;99.90;;;;;;5061584;28;20049;-52
2022/09/19 08:33:02;;;;;;;12.18;2.90;;;17.60;99.90;;;;;;5063459;28;20045;-49
2022/09/19 08:35:30;;;;;;;16.02;3.15;;;17.40;99.90;;;;;;5062780;28;20102;-53
2022/09/19 08:37:58;;;;;;;10.82;3.00;;;17.40;99.90;;;;;;5058601;28;20067;-52
2022/09/19 08:40:46;;;;;;;18.95;4.72;;;17.40;99.90;;;;;;5057365;28;20053;-50
2022/09/19 08:43:37;;;;;;;17.80;3.05;;;17.60;99.90;;;;;;5057486;28;20588;-51
2022/09/19 08:46:14;;;;;;;10.27;2.40;;;17.70;99.90;;;;;;5050003;28;20527;-51
2022/09/19 08:48:52;;;;;;;6.93;2.08;;;17.50;99.90;;;;;;5053329;28;20048;-51
2022/09/19 08:51:31;;;;;;;15.20;3.00;;;17.40;99.90;;;;;;5049777;28;20048;-53
2022/09/19 08:54:04;;;;;;;11.77;3.05;;;17.50;99.90;;;;;;5061999;28;20092;-52
2022/09/19 08:56:30;;;;;;;15.07;3.58;;;17.70;99.90;;;;;;5046780;28;20056;-53
2022/09/19 08:59:01;;;;;;;13.77;3.63;;;17.80;99.90;;;;;;5051978;28;20048;-53
2022/09/19 09:01:33;;;;;;;20.20;3.75;;;17.90;99.90;;;;;;5059207;28;20059;-52
2022/09/19 09:04:14;;;;;;;13.80;3.13;;;17.90;99.90;;;;;;5056628;28;20076;-51
2022/09/19 09:07:18;;;;;;;10.57;3.05;;;17.90;99.90;;;;;;5058486;28;20048;-49
2022/09/19 09:09:55;;;;;;;;;;;17.90;99.90;;;;;;5048700;28;20562;-50
2022/09/19 09:12:31;;;;;;;12.85;2.67;;;17.70;99.90;;;;;;5059767;28;19939;-52
2022/09/19 09:15:20;;;;;;;12.50;2.95;;;17.90;99.90;;;;;;5055387;28;20510;-55
2022/09/19 09:18:01;;;;;;;16.10;2.58;;;18.00;99.90;;;;;;5047221;28;20082;-53
2022/09/19 09:20:41;;;;;;;12.10;2.72;;;18.00;99.90;;;;;;5060453;28;20048;-50
2022/09/19 09:23:20;;;;;;;10.25;2.40;;;18.30;99.90;;;;;;5060647;28;20378;-55
2022/09/19 09:25:48;;;;;;;11.80;2.58;;;18.20;99.90;;;;;;5052084;28;20127;-56
2022/09/19 09:28:37;;;;;;;14.57;2.60;;;18.00;99.90;;;;;;5060793;28;20430;-53
2022/09/19 09:31:25;;;;;;;11.90;2.50;;;18.00;99.90;;;;;;5055933;28;20048;-54
2022/09/19 09:34:03;;;;;;;9.13;3.50;;;18.00;99.90;;;;;;5055322;28;20053;-52
2022/09/19 09:36:48;;;;;;;14.02;3.08;;;18.10;99.90;;;;;;5062575;28;20056;-54
2022/09/19 09:39:49;;;;;;;13.07;3.25;;;18.20;99.90;;;;;;5063762;28;20060;-54
2022/09/19 09:42:21;;;;;;;15.32;4.10;;;18.40;99.90;;;;;;5064425;28;20056;-55
2022/09/19 09:44:56;;;;;;;17.77;3.28;;;18.40;99.90;;;;;;5048915;28;20049;-55
2022/09/19 09:47:43;;;;;;;12.07;2.97;;;18.30;99.90;;;;;;5062216;28;20062;-55
2022/09/19 09:50:47;;;;;;;9.73;2.47;;;18.10;99.90;;;;;;5052170;28;20057;-55
2022/09/19 09:53:31;;;;;;;12.20;3.35;;;17.90;99.90;;;;;;5060159;28;20075;-54
2022/09/19 09:56:17;;;;;;;8.90;2.63;;;18.10;99.90;;;;;;5064917;28;20080;-53
2022/09/19 09:59:02;;;;;;;8.75;2.67;;;18.10;99.90;;;;;;5066814;28;20064;-55
2022/09/19 10:04:55;;;;;;;11.83;2.97;;;17.60;99.90;;;;;;5063770;28;20481;-54
2022/09/19 10:07:45;;;;;;;12.18;2.60;;;17.30;99.90;;;;;;5058526;28;20056;-57
2022/09/19 10:10:15;;;;;;;9.85;2.40;;;17.30;99.90;;;;;;5048132;28;20098;-55
2022/09/19 10:12:46;;;;;;;8.88;2.78;;;17.10;99.90;;;;;;5059033;28;20070;-54
2022/09/19 10:15:19;;;;;;;10.65;2.30;;;17.20;99.90;;;;;;5059970;28;20407;-55
2022/09/19 10:17:47;;;;;;;;;;;17.50;99.90;;;;;;5059151;28;20782;-55
2022/09/19 10:20:22;;;;;;;9.27;2.92;;;17.60;99.90;;;;;;5060064;28;19924;-53
2022/09/19 10:22:49;;;;;;;11.98;2.60;;;17.60;99.90;;;;;;5058188;28;20132;-56
2022/09/19 10:25:16;;;;;;;13.82;3.17;;;17.50;99.90;;;;;;5055986;28;20052;-54
2022/09/19 10:27:49;;;;;;;11.82;2.60;;;17.40;99.90;;;;;;5059636;28;20498;-51
2022/09/19 10:30:25;;;;;;;;;;;17.30;99.90;;;;;;5060991;28;20102;-53
2022/09/19 10:32:56;;;;;;;10.15;2.80;;;17.20;99.90;;;;;;5050756;28;19977;-55
2022/09/19 10:35:26;;;;;;;12.73;3.28;;;17.10;99.90;;;;;;5061757;28;20430;-55
2022/09/19 10:38:15;;;;;;;16.23;3.15;;;17.00;99.90;;;;;;5059512;28;20052;-53
2022/09/19 10:40:56;;;;;;;13.75;2.80;;;16.90;99.90;;;;;;5061117;28;20056;-55
2022/09/19 10:43:38;;;;;;;14.55;3.72;;;16.90;99.90;;;;;;5054333;28;20126;-53
2022/09/19 10:46:07;;;;;;;11.77;2.77;;;17.00;99.90;;;;;;5061051;28;20047;-54
2022/09/19 10:48:35;;;;;;;12.55;2.33;;;17.10;99.90;;;;;;5060090;28;20052;-54
2022/09/19 10:51:08;;;;;;;16.23;3.90;;;16.90;99.90;;;;;;5053727;28;20166;-53
2022/09/19 10:53:35;;;;;;;11.25;2.90;;;16.80;99.90;;;;;;5053211;28;20590;-53
2022/09/19 10:56:06;;;;;;;12.18;3.20;;;16.60;99.90;;;;;;5054428;28;20365;-52
2022/09/19 10:58:39;;;;;;;10.38;2.65;;;15.90;99.90;;;;;;5057579;28;20303;-53
2022/09/19 11:01:18;;;;;;;12.93;2.70;;;15.40;99.90;;;;;;5050939;28;20519;-55
2022/09/19 11:04:26;;;;;;;16.23;2.83;;;15.00;99.90;;;;;;5056638;28;20440;-51
2022/09/19 11:07:00;;;;;;;12.25;2.53;;;14.70;99.90;;;;;;4985253;28;20097;-52
2022/09/19 11:09:37;;;;;;;11.63;2.47;;;14.50;99.90;;;;;;5020339;28;20500;-50
2022/09/19 11:12:12;;;;;;;7.78;2.55;;;14.40;99.90;;;;;;5020464;28;20053;-52
2022/09/19 11:14:44;;;;;;;15.38;3.33;;;14.30;99.90;;;;;;5018966;28;20104;-54
2022/09/19 11:17:38;;;;;;;13.82;3.10;;;14.30;99.90;;;;;;5022222;28;20750;-53
2022/09/19 11:20:32;;;;;;;10.95;2.72;;;14.20;99.90;;;;;;5008364;28;20137;-52
2022/09/19 11:23:13;;;;;;;14.77;2.63;;;14.30;99.90;;;;;;5021790;28;20606;-51
2022/09/19 11:25:58;;;;;;;12.52;2.42;;;14.30;99.90;;;;;;5022084;28;20056;-51
2022/09/19 11:28:48;;;;;;;11.30;2.03;;;14.50;99.90;;;;;;5020189;28;20089;-53
2022/09/19 11:31:46;;;;;;;10.40;2.70;;;14.60;99.90;;;;;;5011179;28;20512;-52
2022/09/19 11:34:26;;;;;;;9.50;2.00;;;14.80;99.90;;;;;;5028536;28;20056;-51
2022/09/19 11:37:00;;;;;;;11.07;2.30;;;15.10;99.90;;;;;;5034611;28;20139;-51
2022/09/19 11:39:38;;;;;;;11.35;2.45;;;15.30;99.90;;;;;;4997006;28;20045;-54
2022/09/19 11:42:23;;;;;;;9.00;1.95;;;15.60;99.90;;;;;;5004264;28;20516;-53
2022/09/19 11:45:20;;;;;;;11.73;2.65;;;15.70;99.90;;;;;;5053295;28;20350;-54
2022/09/19 11:48:01;;;;;;;11.10;2.72;;;15.90;99.90;;;;;;5045497;28;20566;-53
2022/09/19 11:50:41;;;;;;;13.70;2.88;;;16.00;99.90;;;;;;5042633;28;20450;-55
2022/09/19 11:53:29;;;;;;;11.73;2.78;;;16.20;99.90;;;;;;5042303;28;20048;-52
2022/09/19 11:56:13;;;;;;;11.63;2.90;;;16.10;99.90;;;;;;5042900;28;20045;-51
2022/09/19 11:58:59;;;;;;;13.30;2.80;;;16.20;99.90;;;;;;5041936;28;20049;-54
2022/09/19 12:01:37;;;;;;;8.88;2.40;;;16.50;99.90;;;;;;5041297;28;20041;-54
2022/09/19 12:04:05;;;;;;;12.13;2.88;;;16.50;99.90;;;;;;5040786;28;20416;-54
2022/09/19 12:06:54;;;;;;;12.52;2.70;;;16.30;99.90;;;;;;5041405;28;20049;-53
2022/09/19 12:09:55;;;;;;;13.10;2.63;;;16.20;99.90;;;;;;5041797;28;20084;-50
2022/09/19 12:12:24;;;;;;;12.82;2.53;;;16.00;99.90;;;;;;5041192;28;20053;-55
2022/09/19 12:15:20;;;;;;;12.35;2.92;;;15.90;99.90;;;;;;5057395;28;20044;-51
2022/09/19 12:18:03;;;;;;;15.45;3.67;;;15.90;99.90;;;;;;5056911;28;20049;-50
2022/09/19 12:20:41;;;;;;;15.95;3.45;;;15.80;99.90;;;;;;5061401;28;20048;-52
2022/09/19 12:26:34;;;;;;;13.63;3.30;;;15.50;99.90;;;;;;5054972;28;20045;-50
2022/09/19 12:29:37;;;;;;;11.30;2.70;;;15.40;99.90;;;;;;5051583;28;20060;-51
2022/09/19 12:32:38;;;;;;;16.50;3.22;;;15.40;99.90;;;;;;4991995;28;20102;-51
2022/09/19 12:35:38;;;;;;;15.20;3.40;;;15.50;99.90;;;;;;4936830;28;20066;-52
2022/09/19 12:38:26;;;;;;;15.15;2.80;;;15.70;99.90;;;;;;4936405;28;20568;-53
2022/09/19 12:41:06;;;;;;;10.00;2.50;;;16.10;99.90;;;;;;4944626;29;20059;-53
2022/09/19 12:44:09;;;;;;;8.07;2.50;;;16.40;99.90;;;;;;4939586;28;20294;-52
2022/09/19 12:46:51;;;;;;;5.68;1.88;;;16.70;99.90;;;;;;4928443;28;20073;-50
2022/09/19 12:49:17;;;;;;;7.13;1.63;;;16.50;99.90;;;;;;4934197;29;20062;-52
2022/09/19 12:51:55;;;;;;;4.60;1.80;;;16.40;99.90;;;;;;4940383;28;20070;-55
2022/09/19 12:54:46;;;;;;;6.57;1.67;;;16.30;99.90;;;;;;4939409;29;20609;-54
2022/09/19 12:57:33;;;;;;;8.98;2.30;;;16.30;99.90;;;;;;4930987;29;20142;-52
2022/09/19 12:59:59;;;;;;;9.95;2.38;;;16.30;99.90;;;;;;4940812;29;21211;-55
2022/09/19 13:02:34;;;;;;;7.22;2.00;;;16.30;99.90;;;;;;4939971;29;20067;-51
2022/09/19 13:05:05;;;;;;;7.68;1.83;;;16.40;99.90;;;;;;4937294;29;20501;-53
2022/09/19 13:07:46;;;;;;;12.35;2.15;;;16.50;99.90;;;;;;4938660;28;20146;-51
2022/09/19 13:10:22;;;;;;;8.45;2.58;;;16.50;99.90;;;;;;4981498;28;20061;-53
2022/09/19 13:13:13;;;;;;;11.77;2.53;;;16.40;99.90;;;;;;5043629;28;20056;-52
2022/09/19 13:16:07;;;;;;;7.68;1.95;;;16.30;99.90;;;;;;5057344;28;20542;-51
2022/09/19 13:24:57;;;;;;;10.25;2.50;;;16.10;99.90;;;;;;5060276;28;20434;-52
2022/09/19 13:27:25;;;;;;;13.38;3.03;;;16.00;99.90;;;;;;5049845;28;20065;-50
2022/09/19 13:29:57;;;;;;;11.65;3.00;;;16.10;99.90;;;;;;5059856;28;20504;-53
2022/09/19 13:32:53;;;;;;;16.73;3.35;;;16.00;99.90;;;;;;5049411;28;20490;-52
2022/09/19 13:35:22;;;;;;;12.38;2.30;;;16.00;99.90;;;;;;5059661;28;20045;-52
2022/09/19 13:37:56;;;;;;;12.43;3.28;;;16.10;99.90;;;;;;5055061;28;20602;-52